Time;durP1;ratioP1;P1;durP2;ratioP2;P2;SDS_P1;SDS_P2;PMS_P1;PMS_P2;Temp;Humidity;BMP_temperature;BMP_pressure;BME280_temperature;BME280_humidity;BME280_pressure;Samples;Min_cycle;Max_cycle;Signal;HPM_P1;HPM_P2
2023/06/27 00:00:15;;;;;;;24.75;5.07;;;;;;;17.60;72.64;102147.78;6111575;19;20015;-73
2023/06/27 00:02:21;;;;;;;16.00;4.35;;;;;;;17.59;72.00;102140.72;6107390;19;20022;-73
2023/06/27 00:04:28;;;;;;;14.90;5.05;;;;;;;17.61;72.08;102146.84;6111521;19;19998;-74
2023/06/27 00:06:37;;;;;;;14.27;4.18;;;;;;;17.57;71.78;102139.97;6118835;19;20014;-74
2023/06/27 00:26:06;;;;;;;19.15;4.32;;;;;;;17.43;72.24;102144.16;6112870;19;20497;-75
2023/06/27 00:28:12;;;;;;;13.52;4.43;;;;;;;17.39;72.51;102142.59;6116693;19;20022;-75
2023/06/27 00:30:17;;;;;;;15.80;3.80;;;;;;;17.46;73.06;102146.69;6117307;19;20153;-75
2023/06/27 00:32:22;;;;;;;14.85;5.07;;;;;;;17.35;72.78;102146.31;6116819;19;20030;-75
2023/06/27 00:34:29;;;;;;;15.32;4.63;;;;;;;17.32;72.75;102147.34;6116346;19;20018;-75
2023/06/27 00:36:34;;;;;;;15.52;4.45;;;;;;;17.29;73.25;102152.78;6116975;19;20386;-75
2023/06/27 00:38:39;;;;;;;16.40;4.45;;;;;;;17.28;73.24;102152.88;6116868;19;20021;-76
2023/06/27 00:40:44;;;;;;;12.27;4.30;;;;;;;17.34;72.68;102153.44;6116320;19;20511;-76
2023/06/27 00:42:51;;;;;;;17.90;4.82;;;;;;;17.35;72.72;102148.97;6115382;19;20007;-76
2023/06/27 00:44:56;;;;;;;13.30;4.15;;;;;;;17.36;72.97;102150.72;6117262;19;20013;-76
2023/06/27 00:47:04;;;;;;;16.35;4.45;;;;;;;17.32;73.19;102149.13;6115959;19;20083;-74
2023/06/27 00:49:11;;;;;;;15.75;4.40;;;;;;;17.35;73.63;102154.28;6115347;19;20495;-75
2023/06/27 00:51:16;;;;;;;20.08;5.05;;;;;;;17.31;73.56;102150.91;6116044;19;20023;-75
2023/06/27 00:53:22;;;;;;;14.40;4.75;;;;;;;17.27;73.78;102149.38;6114596;19;20045;-76
2023/06/27 00:55:30;;;;;;;18.08;4.60;;;;;;;17.28;73.61;102150.22;6116024;19;20011;-73
2023/06/27 00:57:35;;;;;;;13.00;5.63;;;;;;;17.29;74.18;102150.13;6112582;19;20009;-74
2023/06/27 00:59:48;;;;;;;14.77;4.60;;;;;;;17.33;73.81;102150.88;6116535;19;20015;-73
2023/06/27 01:01:53;;;;;;;17.23;4.57;;;;;;;17.29;73.77;102146.63;6115668;19;20007;-74
2023/06/27 01:03:59;;;;;;;12.98;4.00;;;;;;;17.35;73.78;102146.31;6113792;19;20070;-72
2023/06/27 01:06:10;;;;;;;16.95;4.90;;;;;;;17.38;74.36;102147.97;6116737;19;20091;-74
2023/06/27 01:08:26;;;;;;;13.73;4.18;;;;;;;17.36;73.96;102152.50;6114120;19;20014;-74
2023/06/27 01:10:39;;;;;;;13.63;4.47;;;;;;;17.37;73.77;102144.44;6115603;19;20070;-73
2023/06/27 01:12:49;;;;;;;13.13;5.00;;;;;;;17.33;74.62;102145.56;6115380;19;20501;-72
2023/06/27 01:15:03;;;;;;;16.85;4.35;;;;;;;17.37;74.70;102154.22;6115492;19;20035;-74
2023/06/27 01:17:09;;;;;;;15.38;4.53;;;;;;;17.34;74.16;102141.94;6115505;19;20011;-73
2023/06/27 01:19:22;;;;;;;16.35;5.43;;;;;;;17.31;75.31;102144.75;6115333;19;20466;-73
2023/06/27 01:21:33;;;;;;;21.60;4.83;;;;;;;17.37;75.37;102143.59;6114903;19;20463;-72
2023/06/27 01:23:52;;;;;;;11.77;4.30;;;;;;;17.36;74.79;102149.84;6114529;19;20447;-73
2023/06/27 01:26:03;;;;;;;15.45;5.10;;;;;;;17.36;75.75;102141.88;6115176;19;20454;-74
2023/06/27 01:28:08;;;;;;;11.48;4.43;;;;;;;17.36;75.52;102144.53;6114221;19;20394;-72
2023/06/27 01:30:17;;;;;;;16.10;5.95;;;;;;;17.38;75.14;102143.53;6110409;19;20043;-74
2023/06/27 01:32:29;;;;;;;13.90;4.50;;;;;;;17.34;75.46;102144.59;6114777;19;20019;-75
2023/06/27 01:34:36;;;;;;;13.10;4.32;;;;;;;17.39;75.50;102136.41;6117425;19;20478;-73
2023/06/27 01:36:48;;;;;;;13.60;4.22;;;;;;;17.43;74.71;102133.53;6114159;19;20090;-72
2023/06/27 01:39:02;;;;;;;12.52;4.10;;;;;;;17.37;75.34;102143.59;6114299;19;20011;-74
2023/06/27 01:41:09;;;;;;;;;;;;;;;17.28;76.10;102142.25;6113377;19;20010;-72
2023/06/27 01:43:18;;;;;;;19.23;4.68;;;;;;;17.24;76.24;102148.63;6114735;19;19926;-73
2023/06/27 01:45:27;;;;;;;17.52;4.43;;;;;;;17.25;75.88;102145.06;6116335;19;20443;-74
2023/06/27 01:47:33;;;;;;;17.83;5.07;;;;;;;17.19;76.61;102140.88;6116365;19;20007;-72
2023/06/27 01:49:38;;;;;;;15.95;4.55;;;;;;;17.18;76.62;102143.63;6115330;19;20475;-73
2023/06/27 01:51:44;;;;;;;16.33;4.80;;;;;;;17.16;76.70;102140.16;6112942;19;20010;-74
2023/06/27 01:53:49;;;;;;;12.38;4.10;;;;;;;17.14;76.97;102137.59;6114465;19;20079;-74
2023/06/27 01:55:59;;;;;;;18.30;4.72;;;;;;;17.13;76.82;102135.84;6114427;19;20083;-73
2023/06/27 01:58:04;;;;;;;15.35;4.75;;;;;;;17.17;76.74;102140.09;6110201;19;20021;-73
2023/06/27 02:00:11;;;;;;;14.90;4.88;;;;;;;17.26;76.32;102138.78;6115434;19;20014;-74
2023/06/27 02:02:16;;;;;;;15.35;5.13;;;;;;;17.26;76.14;102136.13;6115629;19;20085;-74
2023/06/27 02:04:21;;;;;;;20.20;5.03;;;;;;;17.22;76.43;102139.88;6114921;19;20017;-75
2023/06/27 02:06:27;;;;;;;15.57;4.93;;;;;;;17.22;76.90;102142.53;6112015;19;20006;-74
2023/06/27 02:08:35;;;;;;;14.25;4.97;;;;;;;17.16;76.37;102141.03;6114739;19;20064;-73
2023/06/27 02:10:40;;;;;;;17.15;4.68;;;;;;;17.19;76.95;102132.91;6114502;19;20080;-73
2023/06/27 02:12:50;;;;;;;12.65;4.60;;;;;;;17.17;77.37;102137.44;6114488;19;20032;-74
2023/06/27 02:14:56;;;;;;;16.42;5.13;;;;;;;17.15;77.66;102138.47;6114918;19;20479;-73
2023/06/27 02:17:04;;;;;;;13.35;4.28;;;;;;;17.22;77.63;102129.25;6112608;19;20090;-72
2023/06/27 02:19:09;;;;;;;15.40;4.95;;;;;;;17.25;77.37;102132.63;6114313;19;20474;-73
2023/06/27 02:21:14;;;;;;;13.45;3.67;;;;;;;17.17;77.48;102131.25;6113740;19;20015;-73
2023/06/27 02:23:19;;;;;;;15.32;4.97;;;;;;;17.14;77.73;102129.63;6112544;19;20031;-74
2023/06/27 02:25:24;;;;;;;10.95;4.65;;;;;;;17.16;77.36;102121.56;6114012;19;20508;-74
2023/06/27 02:27:33;;;;;;;13.45;4.30;;;;;;;17.16;77.85;102121.56;6112274;19;20027;-74
2023/06/27 02:29:41;;;;;;;14.82;4.05;;;;;;;17.09;79.20;102121.03;6112419;19;20332;-76
2023/06/27 02:31:46;;;;;;;15.63;4.47;;;;;;;17.04;79.85;102117.72;6114583;19;20011;-77
2023/06/27 02:33:51;;;;;;;15.95;4.20;;;;;;;17.04;79.59;102117.72;6115369;19;20009;-75
2023/06/27 02:35:56;;;;;;;13.18;4.25;;;;;;;16.99;79.91;102117.94;6113612;19;20363;-74
2023/06/27 02:38:04;;;;;;;15.18;4.70;;;;;;;16.95;79.70;102119.00;6110743;19;20085;-76
2023/06/27 02:40:10;;;;;;;16.02;4.43;;;;;;;16.91;79.99;102121.88;6114943;19;20018;-76
2023/06/27 02:42:16;;;;;;;11.18;4.10;;;;;;;16.96;79.38;102127.84;6114277;19;20078;-75
2023/06/27 02:44:21;;;;;;;9.68;4.28;;;;;;;16.89;79.37;102124.59;6115898;19;20066;-76
2023/06/27 02:46:34;;;;;;;15.30;4.78;;;;;;;16.83;80.70;102122.25;6112999;19;20040;-76
2023/06/27 02:48:39;;;;;;;11.40;4.07;;;;;;;16.79;80.03;102125.94;6114435;19;20047;-75
2023/06/27 02:50:49;;;;;;;11.35;4.47;;;;;;;16.81;79.83;102124.94;6113438;19;20068;-76
2023/06/27 02:52:54;;;;;;;9.05;4.10;;;;;;;16.78;80.07;102129.56;6113359;19;20014;-77
2023/06/27 02:55:02;;;;;;;13.63;4.38;;;;;;;16.78;81.25;102132.22;6113706;19;20145;-76
2023/06/27 02:57:08;;;;;;;12.73;4.10;;;;;;;16.72;80.15;102133.31;6113988;19;20086;-74
2023/06/27 02:59:13;;;;;;;12.27;4.25;;;;;;;16.64;80.89;102123.06;6114248;19;20352;-76
2023/06/27 03:01:18;;;;;;;10.73;4.13;;;;;;;16.62;81.08;102130.22;6110388;19;20090;-76
2023/06/27 03:03:27;;;;;;;11.57;4.25;;;;;;;16.61;80.98;102138.22;6111745;19;20058;-76
2023/06/27 03:05:36;;;;;;;13.53;4.33;;;;;;;16.53;82.37;102129.75;6114725;19;20006;-78
2023/06/27 03:07:41;;;;;;;12.20;4.55;;;;;;;16.51;80.98;102142.22;6113759;19;20015;-76
2023/06/27 03:09:46;;;;;;;9.90;4.13;;;;;;;16.54;81.26;102142.97;6113299;19;20102;-75
2023/06/27 03:11:51;;;;;;;12.27;3.78;;;;;;;16.52;81.29;102144.81;6112183;19;20014;-76
2023/06/27 03:13:56;;;;;;;15.55;5.13;;;;;;;16.56;81.54;102140.22;6111190;19;20007;-74
2023/06/27 03:16:05;;;;;;;10.70;4.30;;;;;;;16.56;81.41;102141.13;6109819;19;20082;-76
2023/06/27 03:18:10;;;;;;;10.60;4.18;;;;;;;16.56;82.14;102141.13;6113541;19;20475;-75
2023/06/27 03:20:20;;;;;;;9.48;3.85;;;;;;;16.49;81.80;102138.81;6112688;19;20495;-76
2023/06/27 03:22:25;;;;;;;12.35;4.78;;;;;;;16.55;81.83;102142.03;6112603;19;20408;-76
2023/06/27 03:24:31;;;;;;;9.85;3.80;;;;;;;16.55;81.75;102142.03;6111577;19;20054;-76
2023/06/27 03:26:36;;;;;;;11.23;3.83;;;;;;;16.45;82.00;102143.38;6110277;19;20479;-77
2023/06/27 03:28:42;;;;;;;9.98;4.38;;;;;;;16.45;81.78;102140.72;6112012;19;20017;-76
2023/06/27 03:30:47;;;;;;;15.40;5.38;;;;;;;16.39;82.70;102143.66;6113073;19;20022;-76
2023/06/27 03:32:52;;;;;;;12.13;5.13;;;;;;;16.39;82.76;102138.34;6112133;19;20050;-75
2023/06/27 03:35:01;;;;;;;9.90;4.15;;;;;;;16.35;83.06;102144.69;6111439;19;20078;-74
2023/06/27 03:37:08;;;;;;;12.40;4.45;;;;;;;16.34;83.08;102145.63;6108261;19;20420;-75
2023/06/27 03:39:14;;;;;;;11.57;5.70;;;;;;;16.29;82.55;102152.94;6100276;19;20364;-76
2023/06/27 03:41:19;;;;;;;10.25;5.28;;;;;;;16.25;83.32;102149.56;6111130;19;20006;-76
2023/06/27 03:43:24;;;;;;;13.38;5.22;;;;;;;16.26;83.40;102148.63;6110731;19;20456;-75
2023/06/27 03:45:34;;;;;;;12.82;5.93;;;;;;;16.25;82.91;102149.56;6111159;19;20017;-76
2023/06/27 03:47:40;;;;;;;11.50;5.18;;;;;;;16.20;83.41;102148.91;6112068;19;19998;-76
2023/06/27 03:49:48;;;;;;;13.27;5.75;;;;;;;16.20;83.90;102148.91;6110976;19;20023;-76
2023/06/27 03:51:54;;;;;;;12.73;5.75;;;;;;;16.18;83.98;102143.66;6112201;19;20104;-76
2023/06/27 03:54:06;;;;;;;14.65;5.10;;;;;;;16.25;83.47;102146.91;6109358;19;20089;-75
2023/06/27 03:56:11;;;;;;;13.57;5.43;;;;;;;16.23;84.10;102141.66;6111110;19;20483;-76
2023/06/27 03:58:16;;;;;;;17.23;6.82;;;;;;;16.18;84.44;102156.91;6111383;19;20015;-76
2023/06/27 04:00:22;;;;;;;12.48;5.80;;;;;;;16.21;84.38;102159.41;6112029;19;20022;-75
2023/06/27 04:02:30;;;;;;;11.77;5.32;;;;;;;16.15;84.67;102154.38;6111500;19;20022;-76
2023/06/27 04:04:35;;;;;;;13.27;5.55;;;;;;;16.20;83.99;102160.34;6111236;19;20460;-76
2023/06/27 04:06:40;;;;;;;11.00;5.15;;;;;;;16.14;83.92;102155.34;6110720;19;20002;-73
2023/06/27 04:08:46;;;;;;;14.68;5.03;;;;;;;16.11;84.14;102165.19;6109785;19;20102;-73
2023/06/27 04:10:53;;;;;;;11.75;4.65;;;;;;;16.02;84.24;102158.50;6110205;19;20029;-74
2023/06/27 04:13:01;;;;;;;11.18;4.47;;;;;;;16.07;84.60;102159.16;6110916;19;20013;-75
2023/06/27 04:15:07;;;;;;;12.35;4.50;;;;;;;16.07;83.43;102161.81;6111923;19;20048;-73
2023/06/27 04:17:12;;;;;;;12.52;4.55;;;;;;;16.02;84.64;102163.78;6111026;19;20097;-75
2023/06/27 04:19:17;;;;;;;12.30;5.22;;;;;;;16.04;84.44;102164.59;6110949;19;20365;-73
2023/06/27 04:21:24;;;;;;;11.85;4.72;;;;;;;16.04;84.89;102161.94;6110937;19;20047;-73
2023/06/27 04:23:32;;;;;;;14.40;4.70;;;;;;;16.06;84.33;102168.06;6110664;19;20010;-76
2023/06/27 04:25:39;;;;;;;13.23;5.45;;;;;;;16.07;85.09;102166.25;6110796;19;20023;-73
2023/06/27 04:27:46;;;;;;;10.35;4.13;;;;;;;16.02;85.27;102163.78;6111432;19;20102;-73
2023/06/27 04:29:52;;;;;;;10.77;4.47;;;;;;;16.02;83.94;102162.00;6110799;19;20082;-73
2023/06/27 04:31:59;;;;;;;11.10;4.13;;;;;;;16.05;84.06;102161.00;6110723;19;20010;-74
2023/06/27 04:34:03;;;;;;;10.52;4.00;;;;;;;16.03;84.91;102168.16;6108842;19;20034;-73
2023/06/27 04:36:09;;;;;;;13.55;4.05;;;;;;;16.03;84.38;102170.81;6110326;19;20034;-73
2023/06/27 04:38:14;;;;;;;10.48;4.97;;;;;;;16.02;84.58;102166.44;6111496;19;20051;-74
2023/06/27 04:40:21;;;;;;;8.93;3.88;;;;;;;15.97;84.78;102163.97;6109220;19;20011;-72
2023/06/27 04:42:29;;;;;;;11.23;4.25;;;;;;;16.06;84.58;102170.72;6110517;19;20023;-73
2023/06/27 04:44:37;;;;;;;12.77;4.75;;;;;;;16.08;84.37;102173.28;6099661;19;20054;-73
2023/06/27 04:46:42;;;;;;;11.38;4.53;;;;;;;16.07;84.71;102172.41;6109470;19;20015;-73
2023/06/27 04:48:47;;;;;;;12.05;4.80;;;;;;;16.12;84.41;102175.75;6111575;19;20015;-73
2023/06/27 04:50:53;;;;;;;13.07;4.50;;;;;;;16.16;84.14;102174.66;6113773;19;20019;-73
2023/06/27 04:53:05;;;;;;;8.95;4.10;;;;;;;16.32;83.71;102174.00;6115801;19;20063;-73
2023/06/27 04:55:13;;;;;;;11.70;4.78;;;;;;;16.49;82.72;102163.53;6115394;19;20018;-76
2023/06/27 04:57:18;;;;;;;11.10;4.75;;;;;;;16.62;82.22;102166.50;6116509;19;20014;-77
2023/06/27 04:59:31;;;;;;;13.30;4.43;;;;;;;16.81;82.31;102166.56;6116152;19;20011;-73
2023/06/27 05:01:39;;;;;;;12.13;4.73;;;;;;;17.05;81.21;102168.09;6116899;19;20018;-75
2023/06/27 05:03:44;;;;;;;11.38;4.40;;;;;;;17.24;80.64;102169.88;6115863;19;20235;-76
2023/06/27 05:05:49;;;;;;;12.88;5.05;;;;;;;17.37;79.56;102171.03;6115970;19;20404;-75
2023/06/27 05:07:54;;;;;;;12.30;4.35;;;;;;;17.71;78.67;102174.69;6115246;19;20002;-76
2023/06/27 05:09:59;;;;;;;12.32;4.43;;;;;;;17.84;77.21;102159.03;6114315;19;20003;-76
2023/06/27 05:12:05;;;;;;;14.02;4.38;;;;;;;18.20;76.19;102164.28;6113879;19;20018;-75
2023/06/27 05:14:10;;;;;;;9.38;3.80;;;;;;;18.31;75.22;102171.72;6113215;19;20039;-78
2023/06/27 05:16:15;;;;;;;11.98;4.00;;;;;;;18.54;74.23;102167.88;6116942;19;20107;-76
2023/06/27 05:18:32;;;;;;;10.07;4.00;;;;;;;18.80;73.70;102167.38;6115887;19;20014;-75
2023/06/27 05:20:37;;;;;;;9.52;3.78;;;;;;;19.15;71.16;102169.88;6114541;19;20041;-76
2023/06/27 05:22:42;;;;;;;13.07;3.50;;;;;;;18.95;71.42;102167.47;6116147;19;20014;-75
2023/06/27 05:24:47;;;;;;;13.27;4.82;;;;;;;19.09;70.50;102162.25;6114034;19;20490;-74
2023/06/27 05:26:52;;;;;;;8.63;4.28;;;;;;;19.42;70.03;102169.28;6114276;19;20020;-73
2023/06/27 05:28:59;;;;;;;12.18;4.00;;;;;;;19.49;69.39;102168.84;6114576;19;20010;-74
2023/06/27 05:31:04;;;;;;;7.95;3.70;;;;;;;20.00;68.53;102170.44;6116026;19;20522;-74
2023/06/27 05:33:09;;;;;;;8.60;3.60;;;;;;;20.09;67.48;102169.88;6114286;19;20039;-73
2023/06/27 05:35:17;;;;;;;10.52;3.30;;;;;;;20.19;67.29;102165.69;6115958;19;20022;-74
2023/06/27 05:37:22;;;;;;;9.15;3.58;;;;;;;19.87;66.96;102170.28;6116406;19;20018;-74
2023/06/27 05:39:28;;;;;;;9.77;4.28;;;;;;;20.57;65.98;102168.75;6114159;19;20014;-74
2023/06/27 05:41:33;;;;;;;9.40;3.67;;;;;;;20.12;65.29;102170.56;6115925;19;20010;-75
2023/06/27 05:43:39;;;;;;;9.45;3.17;;;;;;;19.70;66.58;102173.94;6114701;19;20323;-74
2023/06/27 05:45:44;;;;;;;6.13;3.28;;;;;;;20.12;66.13;102172.38;6108693;19;20122;-74
2023/06/27 05:47:49;;;;;;;6.57;3.10;;;;;;;20.42;64.33;102163.47;6115112;19;20365;-74
2023/06/27 05:49:54;;;;;;;9.85;3.25;;;;;;;20.62;64.32;102168.47;6115467;19;20074;-74
2023/06/27 05:52:04;;;;;;;7.30;3.25;;;;;;;20.48;63.36;102166.59;6089707;19;20010;-74
2023/06/27 05:54:10;;;;;;;7.38;2.83;;;;;;;21.06;62.13;102164.81;6113329;19;20101;-74
2023/06/27 05:56:15;;;;;;;4.60;2.58;;;;;;;21.46;60.88;102165.81;6115016;19;20016;-75
2023/06/27 05:58:20;;;;;;;4.93;2.80;;;;;;;20.92;59.83;102168.34;6116549;19;20166;-76
2023/06/27 06:00:25;;;;;;;5.68;2.78;;;;;;;21.42;59.78;102164.28;6113622;19;20066;-76
2023/06/27 06:02:33;;;;;;;5.63;2.65;;;;;;;21.53;58.25;102170.75;6110935;19;20011;-78
2023/06/27 06:04:40;;;;;;;5.82;2.22;;;;;;;21.24;58.16;102171.66;6114133;19;20007;-75
2023/06/27 06:06:47;;;;;;;6.28;2.42;;;;;;;21.83;58.08;102174.06;6115201;19;20464;-76
2023/06/27 06:08:56;;;;;;;6.50;2.75;;;;;;;21.87;56.82;102178.25;6114206;19;20022;-76
2023/06/27 06:11:04;;;;;;;6.43;2.85;;;;;;;21.95;56.88;102179.56;6114393;19;20038;-76
2023/06/27 06:13:11;;;;;;;7.07;2.58;;;;;;;22.28;55.79;102179.97;6113815;19;20018;-75
2023/06/27 06:15:17;;;;;;;7.03;2.33;;;;;;;22.08;55.95;102180.44;6113890;19;20031;-76
2023/06/27 06:17:23;;;;;;;8.00;2.80;;;;;;;22.17;56.10;102184.31;6115043;19;20035;-75
2023/06/27 06:19:31;;;;;;;5.13;2.25;;;;;;;22.08;54.89;102180.44;6113633;19;20482;-74
2023/06/27 06:21:37;;;;;;;7.55;2.78;;;;;;;21.88;55.61;102179.09;6113712;19;20038;-73
2023/06/27 06:23:42;;;;;;;7.20;2.30;;;;;;;22.02;54.88;102180.88;6114197;19;20076;-74
2023/06/27 06:25:50;;;;;;;5.53;2.50;;;;;;;22.71;51.85;102179.66;6113100;19;20499;-73
2023/06/27 06:27:55;;;;;;;9.52;2.80;;;;;;;22.19;53.78;102183.28;6113071;19;20409;-74
2023/06/27 06:30:04;;;;;;;8.13;2.30;;;;;;;22.66;51.74;102183.63;6110256;19;20010;-77
2023/06/27 06:32:10;;;;;;;4.40;2.00;;;;;;;22.33;51.72;102187.69;6112580;19;20570;-76
2023/06/27 06:34:15;;;;;;;5.68;2.40;;;;;;;22.84;50.99;102184.16;6114889;19;20510;-73
2023/06/27 06:36:20;;;;;;;6.22;2.13;;;;;;;22.55;49.88;102177.19;6113778;19;20149;-74
2023/06/27 06:38:28;;;;;;;5.82;2.00;;;;;;;22.79;49.08;102179.09;6113254;19;20011;-74
2023/06/27 06:40:33;;;;;;;5.70;2.03;;;;;;;22.45;49.23;102185.97;6114344;19;20036;-77
2023/06/27 06:42:41;;;;;;;5.88;2.42;;;;;;;22.32;49.66;102185.97;6113184;19;20014;-75
2023/06/27 06:44:47;;;;;;;4.68;2.00;;;;;;;22.52;50.63;102177.41;6112623;19;20090;-76
2023/06/27 06:46:53;;;;;;;4.68;1.98;;;;;;;22.29;49.37;102202.25;6112635;19;20014;-75
2023/06/27 06:49:00;;;;;;;7.10;1.95;;;;;;;22.46;47.98;102211.78;6112395;19;20528;-74
2023/06/27 06:51:06;;;;;;;5.95;2.03;;;;;;;21.77;50.00;102200.38;6113247;19;20471;-75
2023/06/27 06:53:10;;;;;;;3.75;1.98;;;;;;;22.53;47.88;102202.38;6110470;19;20039;-76
2023/06/27 06:55:16;;;;;;;4.72;2.25;;;;;;;22.32;48.56;102202.03;6112408;19;20011;-75
2023/06/27 06:57:21;;;;;;;6.90;2.05;;;;;;;21.76;49.32;102196.00;6112635;19;20009;-73
2023/06/27 06:59:32;;;;;;;3.78;1.73;;;;;;;21.97;47.98;102194.56;6112275;19;20400;-74
2023/06/27 07:01:37;;;;;;;6.18;2.20;;;;;;;22.57;47.09;102186.00;6112767;19;20006;-74
2023/06/27 07:03:42;;;;;;;4.07;1.98;;;;;;;22.34;45.99;102195.63;6113915;19;20007;-73
2023/06/27 07:05:47;;;;;;;3.17;2.10;;;;;;;22.06;46.77;102195.75;6111822;19;20361;-75
2023/06/27 07:07:53;;;;;;;7.65;2.05;;;;;;;22.79;45.15;102190.69;6110800;19;20002;-72
2023/06/27 07:09:59;;;;;;;3.75;1.80;;;;;;;22.57;44.87;102195.84;6110660;19;20088;-73
2023/06/27 07:12:04;;;;;;;4.93;1.60;;;;;;;22.03;45.61;102196.81;6112130;19;20040;-75
2023/06/27 07:14:09;;;;;;;2.60;1.63;;;;;;;22.25;45.98;102195.38;6112688;19;20054;-75
2023/06/27 07:16:17;;;;;;;5.00;1.63;;;;;;;21.45;46.74;102198.00;6113110;19;20101;-72
2023/06/27 07:18:26;;;;;;;5.57;2.00;;;;;;;21.22;47.75;102196.75;6111841;19;20002;-73
2023/06/27 07:20:34;;;;;;;5.38;1.90;;;;;;;21.09;49.48;102201.16;6111965;19;20420;-73
2023/06/27 07:22:39;;;;;;;4.30;1.90;;;;;;;21.41;48.23;102200.03;6112898;19;20049;-73
2023/06/27 07:24:44;;;;;;;3.17;1.45;;;;;;;21.31;48.36;102200.69;6111843;19;20006;-72
2023/06/27 07:26:51;;;;;;;4.93;1.98;;;;;;;21.11;48.43;102197.44;6111420;19;20506;-76
2023/06/27 07:28:56;;;;;;;4.53;1.90;;;;;;;21.36;48.93;102196.75;6112094;19;20588;-76
2023/06/27 07:31:04;;;;;;;4.45;1.77;;;;;;;21.20;48.09;102201.38;6112718;19;20124;-76
2023/06/27 07:33:11;;;;;;;4.00;1.75;;;;;;;21.19;47.74;102197.81;6112436;19;20007;-74
2023/06/27 07:35:19;;;;;;;5.53;1.83;;;;;;;21.10;48.29;102198.41;6112665;19;20014;-76
2023/06/27 07:37:24;;;;;;;4.47;1.80;;;;;;;21.24;48.19;102202.88;6111297;19;20010;-74
2023/06/27 07:39:29;;;;;;;6.60;2.20;;;;;;;21.50;47.09;102195.03;6112157;19;20022;-75
2023/06/27 07:41:36;;;;;;;4.45;1.80;;;;;;;21.92;46.00;102200.22;6111861;19;20490;-75
2023/06/27 07:43:41;;;;;;;5.20;2.30;;;;;;;22.15;45.82;102195.13;6112398;19;20512;-74
2023/06/27 07:45:46;;;;;;;5.43;1.80;;;;;;;22.54;45.02;102204.97;6111795;19;20054;-75
2023/06/27 07:47:51;;;;;;;1.92;1.50;;;;;;;22.69;45.17;102200.34;6110855;19;20011;-75
2023/06/27 07:49:59;;;;;;;4.30;1.83;;;;;;;21.73;44.10;102199.72;6110180;19;20018;-75
2023/06/27 07:52:04;;;;;;;3.40;1.65;;;;;;;21.73;45.27;102194.38;6107461;19;20007;-74
2023/06/27 07:54:09;;;;;;;4.97;2.05;;;;;;;21.80;45.56;102192.13;6108016;19;20011;-74
2023/06/27 07:56:15;;;;;;;3.25;1.73;;;;;;;22.26;45.81;102192.59;6111675;19;20032;-72
2023/06/27 07:58:20;;;;;;;6.70;1.63;;;;;;;22.11;44.18;102199.81;6111974;19;20034;-72
2023/06/27 08:00:26;;;;;;;4.70;1.65;;;;;;;22.06;44.63;102220.69;6112118;19;20022;-72
2023/06/27 08:05:31;;;;;;;3.78;1.63;;;;;;;21.22;45.10;102210.13;6107167;19;20382;-71
2023/06/27 08:07:37;;;;;;;3.78;2.00;;;;;;;21.68;45.79;102207.19;6110849;19;20078;-73
2023/06/27 08:09:43;;;;;;;5.72;1.73;;;;;;;21.87;45.90;102212.19;6110574;19;20047;-72
2023/06/27 08:11:48;;;;;;;4.95;1.52;;;;;;;22.26;44.12;102216.72;6111110;19;20018;-73
2023/06/27 08:13:53;;;;;;;3.92;1.30;;;;;;;21.76;43.91;102204.88;6112125;19;20467;-72
2023/06/27 08:15:58;;;;;;;6.88;2.00;;;;;;;22.09;44.40;102203.56;6106881;19;20475;-72
2023/06/27 08:18:03;;;;;;;4.85;1.70;;;;;;;22.16;44.37;102201.34;6109948;19;20395;-72
2023/06/27 08:20:11;;;;;;;3.20;1.77;;;;;;;21.92;43.35;102205.56;6109902;19;20103;-71
2023/06/27 08:22:19;;;;;;;3.45;1.60;;;;;;;21.78;44.34;102200.28;6110990;19;20040;-72
2023/06/27 08:24:24;;;;;;;4.43;1.50;;;;;;;21.67;44.63;102205.50;6109020;19;20013;-72
2023/06/27 08:26:29;;;;;;;5.43;2.22;;;;;;;21.83;45.03;102200.84;6115136;19;20010;-71
2023/06/27 08:28:36;;;;;;;5.28;1.60;;;;;;;22.03;45.04;102195.97;6117270;19;20028;-72
2023/06/27 08:30:41;;;;;;;4.95;1.60;;;;;;;22.27;44.94;102207.69;6115375;19;20010;-75
2023/06/27 08:32:47;;;;;;;6.45;2.00;;;;;;;22.23;45.15;102206.22;6117658;19;20365;-73
2023/06/27 08:34:52;;;;;;;6.97;2.08;;;;;;;21.99;46.37;102205.16;6117698;19;20327;-74
2023/06/27 08:36:59;;;;;;;7.18;1.90;;;;;;;22.41;45.44;102208.56;6117045;19;20009;-75
2023/06/27 08:39:07;;;;;;;7.43;1.95;;;;;;;22.12;45.31;102206.06;6116823;19;20027;-74
2023/06/27 08:41:13;;;;;;;4.00;1.63;;;;;;;21.58;45.42;102208.75;6116742;19;20098;-74
2023/06/27 08:43:18;;;;;;;2.80;1.52;;;;;;;21.84;45.75;102207.88;6117046;19;20106;-76
2023/06/27 08:45:22;;;;;;;6.35;1.52;;;;;;;22.03;46.10;102199.47;6116207;19;20058;-75
2023/06/27 08:47:33;;;;;;;6.50;2.30;;;;;;;21.65;46.67;102207.41;6115199;19;20019;-74
2023/06/27 08:49:41;;;;;;;3.17;1.48;;;;;;;21.47;47.11;102212.13;6115890;19;20006;-75
2023/06/27 08:51:51;;;;;;;1.63;1.50;;;;;;;21.95;46.62;102217.03;6116397;19;20011;-74
2023/06/27 08:54:03;;;;;;;3.30;1.58;;;;;;;22.10;45.33;102219.53;6115930;19;20027;-75
2023/06/27 08:56:13;;;;;;;3.05;1.42;;;;;;;22.51;44.91;102213.22;6114467;19;20531;-75
2023/06/27 08:58:18;;;;;;;4.85;1.35;;;;;;;22.67;44.45;102204.09;6115796;19;20036;-75
2023/06/27 09:00:30;;;;;;;2.25;1.23;;;;;;;22.40;44.38;102212.22;6115705;19;20011;-74
2023/06/27 09:02:36;;;;;;;5.07;1.80;;;;;;;21.97;44.88;102218.66;6117904;19;20411;-74
2023/06/27 09:04:43;;;;;;;4.85;1.95;;;;;;;21.53;46.21;102206.38;6117124;19;20026;-75
2023/06/27 09:06:48;;;;;;;7.50;1.92;;;;;;;21.83;46.22;102211.53;6116351;19;20554;-75
2023/06/27 09:08:54;;;;;;;6.60;1.95;;;;;;;22.22;44.93;102220.56;6117106;19;20010;-75
2023/06/27 09:10:59;;;;;;;3.47;1.50;;;;;;;22.45;45.87;102218.13;6115349;19;20006;-76
2023/06/27 09:13:08;;;;;;;5.38;1.92;;;;;;;22.61;44.58;102210.72;6111969;19;20042;-76
2023/06/27 09:15:14;;;;;;;3.85;1.88;;;;;;;22.37;45.84;102205.25;6114918;19;20372;-75
2023/06/27 09:17:20;;;;;;;3.63;1.52;;;;;;;22.97;45.79;102206.47;6114368;19;20010;-75
2023/06/27 09:19:27;;;;;;;4.53;1.60;;;;;;;23.36;44.93;102207.25;6114230;19;20089;-75
2023/06/27 09:21:36;;;;;;;3.72;1.65;;;;;;;23.39;43.90;102215.06;6114348;19;20010;-76
2023/06/27 09:23:49;;;;;;;6.57;1.65;;;;;;;23.79;43.57;102217.50;6115233;19;20011;-74
2023/06/27 09:26:08;;;;;;;3.72;1.35;;;;;;;22.67;44.12;102218.38;6115155;19;20010;-75
2023/06/27 09:28:22;;;;;;;3.75;1.80;;;;;;;22.26;45.39;102218.53;6112158;19;20056;-74
2023/06/27 09:30:33;;;;;;;4.47;1.60;;;;;;;22.82;43.63;102212.88;6115414;19;20066;-75
2023/06/27 09:32:54;;;;;;;2.97;1.67;;;;;;;22.99;43.71;102217.94;6116000;19;20022;-73
2023/06/27 09:35:04;;;;;;;5.18;1.75;;;;;;;23.65;42.51;102211.31;6113861;19;20013;-74
2023/06/27 09:37:09;;;;;;;4.07;1.80;;;;;;;23.65;41.84;102205.94;6112859;19;20038;-74
2023/06/27 09:39:17;;;;;;;7.55;1.90;;;;;;;23.25;42.46;102208.03;6112570;19;20039;-74
2023/06/27 09:41:22;;;;;;;3.38;1.60;;;;;;;24.52;41.02;102206.53;6114606;19;20047;-75
2023/06/27 09:43:35;;;;;;;5.60;1.77;;;;;;;23.87;40.80;102193.63;6114951;19;20446;-72
2023/06/27 09:45:40;;;;;;;3.45;1.70;;;;;;;24.29;40.91;102210.97;6114016;19;20070;-78
2023/06/27 09:47:47;;;;;;;6.35;2.42;;;;;;;24.02;40.71;102210.41;6114303;19;20015;-71
2023/06/27 09:49:55;;;;;;;3.83;1.50;;;;;;;24.73;39.76;102208.53;6111970;19;20014;-71
2023/06/27 09:52:08;;;;;;;5.65;2.10;;;;;;;24.01;40.57;102211.38;6107496;19;20017;-74
2023/06/27 09:54:14;;;;;;;5.68;1.92;;;;;;;23.66;41.32;102218.38;6114549;19;20118;-75
2023/06/27 09:56:39;;;;;;;5.07;1.80;;;;;;;24.13;40.19;102220.34;6115670;19;20011;-75
2023/06/27 09:58:47;;;;;;;7.07;2.17;;;;;;;23.80;40.91;102214.72;6115718;19;20061;-75
2023/06/27 10:00:54;;;;;;;5.88;1.75;;;;;;;23.63;41.52;102221.28;6106715;19;20018;-74
2023/06/27 10:02:59;;;;;;;3.15;1.55;;;;;;;23.74;41.29;102222.38;6115986;19;20440;-73
2023/06/27 10:05:04;;;;;;;5.88;1.85;;;;;;;23.59;40.79;102219.81;6115548;19;20014;-73
2023/06/27 10:07:13;;;;;;;3.20;1.65;;;;;;;24.85;40.34;102210.22;6116063;19;20409;-72